createdAt,value
2023-01-13T00:00:24.169Z,98664.88
2023-01-13T00:02:52.391Z,98660.31
2023-01-13T00:05:21.963Z,98662.81
2023-01-13T00:07:50.039Z,98669.03
2023-01-13T00:10:18.487Z,98650.81
2023-01-13T00:12:46.515Z,98673.09
2023-01-13T00:15:14.591Z,98685.03
2023-01-13T00:17:42.876Z,98698.06
2023-01-13T00:20:11.684Z,98685.22
2023-01-13T00:22:41.124Z,98693.06
2023-01-13T00:25:09.739Z,98686.88
2023-01-13T00:27:37.718Z,98690.38
2023-01-13T00:30:07.602Z,98705.47
2023-01-13T00:32:35.656Z,98711.03
2023-01-13T00:35:03.937Z,98724.06
2023-01-13T00:37:32.239Z,98726.56
2023-01-13T00:40:02.206Z,98740.72
2023-01-13T00:42:52.187Z,98742.28
2023-01-13T00:45:22.303Z,98754.59
2023-01-13T00:47:50.480Z,98734.88
2023-01-13T00:50:18.703Z,98742.25
2023-01-13T00:52:46.760Z,98751.03
2023-01-13T00:55:16.495Z,98748.78
2023-01-13T00:57:44.630Z,98761.22
2023-01-13T01:00:13.625Z,98774.44
2023-01-13T01:02:42.112Z,98795.44
2023-01-13T01:05:11.120Z,98804.13
2023-01-13T01:07:39.097Z,98819.19
2023-01-13T01:10:07.660Z,98840.47
2023-01-13T01:12:37.680Z,98852.69
2023-01-13T01:15:07.722Z,98840.94
2023-01-13T01:17:35.895Z,98843.16
2023-01-13T01:20:04.278Z,98858.38
2023-01-13T01:22:32.404Z,98859.06
2023-01-13T01:25:01.076Z,98853.50
2023-01-13T01:27:29.195Z,98855.19
2023-01-13T01:29:58.939Z,98858.88
2023-01-13T01:32:27.089Z,98856.00
2023-01-13T01:34:55.383Z,98878.47
2023-01-13T01:37:23.440Z,98883.19
2023-01-13T01:39:51.627Z,98887.88
2023-01-13T01:42:37.635Z,98889.38
2023-01-13T01:45:16.260Z,98881.31
2023-01-13T01:47:45.870Z,98901.28
2023-01-13T01:50:14.076Z,98901.78
2023-01-13T01:52:44.320Z,98893.78
2023-01-13T01:55:15.497Z,98902.34
2023-01-13T01:57:45.320Z,98896.63
2023-01-13T02:00:15.583Z,98907.34
2023-01-13T02:02:45.386Z,98910.72
2023-01-13T02:05:14.150Z,98912.34
2023-01-13T02:07:43.245Z,98928.09
2023-01-13T02:10:14.282Z,98931.81
2023-01-13T02:12:44.541Z,98946.84
2023-01-13T02:15:15.454Z,98953.25
2023-01-13T02:17:59.994Z,98962.28
2023-01-13T02:20:44.174Z,98951.94
2023-01-13T02:23:47.553Z,98946.41
2023-01-13T02:26:33.967Z,98951.78
2023-01-13T02:29:26.627Z,98964.22
2023-01-13T02:32:00.224Z,98972.13
2023-01-13T02:34:34.649Z,98974.81
2023-01-13T02:37:05.614Z,98969.94
2023-01-13T02:39:35.926Z,98962.44
2023-01-13T02:42:23.371Z,98972.16
2023-01-13T02:44:54.894Z,98994.94
2023-01-13T02:47:26.721Z,98988.94
2023-01-13T02:49:57.297Z,98995.63
2023-01-13T02:52:27.195Z,99002.34
2023-01-13T02:54:58.412Z,99002.50
2023-01-13T02:57:27.901Z,98999.00
2023-01-13T02:59:56.919Z,98993.66
2023-01-13T03:02:27.207Z,98988.94
2023-01-13T03:04:56.537Z,98999.81
2023-01-13T03:07:53.481Z,99005.03
2023-01-13T03:10:28.928Z,99010.22
2023-01-13T03:13:03.832Z,99004.19
2023-01-13T03:15:40.520Z,99014.06
2023-01-13T03:18:15.380Z,99020.59
2023-01-13T03:20:49.071Z,99022.44
2023-01-13T03:23:18.828Z,99034.31
2023-01-13T03:25:50.912Z,99041.84
2023-01-13T03:28:24.888Z,99038.00
2023-01-13T03:30:55.328Z,99046.03
2023-01-13T03:33:26.814Z,99051.88
2023-01-13T03:35:57.089Z,99059.56
2023-01-13T03:38:29.566Z,99070.13
2023-01-13T03:41:00.111Z,99079.31
2023-01-13T03:43:47.519Z,99089.03
2023-01-13T03:46:19.975Z,99089.03
2023-01-13T03:48:54.123Z,99085.34
2023-01-13T03:51:25.352Z,99091.03
2023-01-13T03:53:56.802Z,99087.69
2023-01-13T03:56:28.745Z,99104.91
2023-01-13T03:58:58.994Z,99104.44
2023-01-13T04:01:29.806Z,99118.47
2023-01-13T04:04:02.123Z,99130.00
2023-01-13T04:06:35.233Z,99127.00
2023-01-13T04:09:07.377Z,99147.78
2023-01-13T04:11:39.938Z,99126.03
2023-01-13T04:14:09.671Z,99123.19
2023-01-13T04:16:38.416Z,99118.81
2023-01-13T04:19:07.990Z,99128.19
2023-01-13T04:21:36.496Z,99128.19
2023-01-13T04:24:04.781Z,99148.63
2023-01-13T04:26:33.237Z,99151.78
2023-01-13T04:29:01.273Z,99158.66
2023-01-13T04:31:29.661Z,99176.94
2023-01-13T04:33:58.106Z,99177.44
2023-01-13T04:36:28.489Z,99173.59
2023-01-13T04:38:57.256Z,99176.75
2023-01-13T04:41:25.423Z,99164.88
2023-01-13T04:43:53.501Z,99157.00
2023-01-13T04:46:21.750Z,99178.44
2023-01-13T04:48:50.112Z,99180.13
2023-01-13T04:51:18.430Z,99179.78
2023-01-13T04:53:48.033Z,99184.81
2023-01-13T04:56:16.037Z,99195.34
2023-01-13T04:58:44.258Z,99197.19
2023-01-13T05:01:12.448Z,99209.25
2023-01-13T05:03:40.565Z,99211.75
2023-01-13T05:06:09.037Z,99216.63
2023-01-13T05:08:37.314Z,99224.34
2023-01-13T05:11:26.949Z,99212.28
2023-01-13T05:14:12.615Z,99216.47
2023-01-13T05:16:54.474Z,99227.69
2023-01-13T05:19:22.738Z,99223.34
2023-01-13T05:22:08.162Z,99228.88
2023-01-13T05:24:53.578Z,99234.06
2023-01-13T05:27:23.189Z,99240.25
2023-01-13T05:29:51.395Z,99254.50
2023-01-13T05:32:19.557Z,99252.13
2023-01-13T05:34:47.771Z,99251.16
2023-01-13T05:37:16.377Z,99250.31
2023-01-13T05:40:01.980Z,99248.97
2023-01-13T05:42:49.181Z,99271.56
2023-01-13T05:45:17.484Z,99275.25
2023-01-13T05:47:45.833Z,99283.28
2023-01-13T05:50:13.937Z,99277.56
2023-01-13T05:52:42.044Z,99277.25
2023-01-13T05:55:10.716Z,99282.75
2023-01-13T05:57:40.508Z,99291.66
2023-01-13T06:00:09.519Z,99292.97
2023-01-13T06:02:40.528Z,99310.72
2023-01-13T06:05:09.267Z,99303.16
2023-01-13T06:07:37.314Z,99305.19
2023-01-13T06:10:05.876Z,99302.66
2023-01-13T06:12:34.389Z,99310.00
2023-01-13T06:15:04.563Z,99311.53
2023-01-13T06:17:32.809Z,99308.84
2023-01-13T06:20:00.810Z,99320.41
2023-01-13T06:22:32.473Z,99321.41
2023-01-13T06:25:00.970Z,99335.81
2023-01-13T06:27:30.443Z,99330.78
2023-01-13T06:29:58.624Z,99341.81
2023-01-13T06:32:30.415Z,99343.84
2023-01-13T06:35:01.038Z,99343.50
2023-01-13T06:37:30.180Z,99352.22
2023-01-13T06:40:00.679Z,99347.56
2023-01-13T06:42:47.283Z,99357.56
2023-01-13T06:45:15.541Z,99362.44
2023-01-13T06:47:45.313Z,99356.25
2023-01-13T06:50:13.607Z,99360.06
2023-01-13T06:52:41.855Z,99356.69
2023-01-13T06:55:10.148Z,99374.63
2023-01-13T06:57:47.760Z,99386.66
2023-01-13T07:00:16.636Z,99386.81
2023-01-13T07:02:46.238Z,99382.28
2023-01-13T07:05:14.565Z,99381.78
2023-01-13T07:07:42.921Z,99397.69
2023-01-13T07:10:14.392Z,99396.69
2023-01-13T07:12:59.836Z,99391.78
2023-01-13T07:15:28.368Z,99399.00
2023-01-13T07:18:00.039Z,99409.22
2023-01-13T07:20:28.588Z,99399.66
2023-01-13T07:22:57.163Z,99409.06
2023-01-13T07:25:25.503Z,99411.19
2023-01-13T07:27:58.300Z,99435.44
2023-01-13T07:30:26.351Z,99434.47
2023-01-13T07:32:54.409Z,99448.53
2023-01-13T07:35:24.033Z,99447.22
2023-01-13T07:37:52.079Z,99453.38
2023-01-13T07:40:20.377Z,99450.03
2023-01-13T07:43:06.352Z,99463.59
2023-01-13T07:45:34.579Z,99453.22
2023-01-13T07:48:02.731Z,99467.03
2023-01-13T07:50:32.506Z,99467.34
2023-01-13T07:53:00.816Z,99479.25
2023-01-13T07:55:29.034Z,99467.69
2023-01-13T07:57:57.352Z,99468.22
2023-01-13T08:00:25.572Z,99479.09
2023-01-13T08:02:53.709Z,99492.47
2023-01-13T08:05:22.170Z,99487.78
2023-01-13T08:07:51.776Z,99500.66
2023-01-13T08:10:20.324Z,99501.03
2023-01-13T08:13:05.908Z,99505.91
2023-01-13T08:15:34.841Z,99511.81
2023-01-13T08:18:03.037Z,99517.97
2023-01-13T08:20:31.208Z,99520.19
2023-01-13T08:23:02.563Z,99527.22
2023-01-13T08:25:30.755Z,99526.41
2023-01-13T08:28:00.288Z,99531.59
2023-01-13T08:30:29.266Z,99545.66
2023-01-13T08:32:59.040Z,99538.25
2023-01-13T08:35:27.655Z,99550.34
2023-01-13T08:37:56.064Z,99557.16
2023-01-13T08:40:25.718Z,99550.13
2023-01-13T08:42:54.472Z,99557.16
2023-01-13T08:45:31.913Z,99570.31
2023-01-13T08:48:08.842Z,99571.34
2023-01-13T08:50:38.291Z,99580.38
2023-01-13T08:53:06.497Z,99586.38
2023-01-13T08:55:36.339Z,99582.06
2023-01-13T08:58:15.288Z,99594.44
2023-01-13T09:00:45.025Z,99596.13
2023-01-13T09:03:13.400Z,99603.53
2023-01-13T09:05:42.195Z,99602.22
2023-01-13T09:08:10.771Z,99595.88
2023-01-13T09:10:41.640Z,99594.44
2023-01-13T09:13:12.269Z,99589.22
2023-01-13T09:15:41.406Z,99592.56
2023-01-13T09:18:09.963Z,99589.59
2023-01-13T09:20:38.201Z,99601.00
2023-01-13T09:23:09.984Z,99599.31
2023-01-13T09:25:40.624Z,99606.34
2023-01-13T09:28:09.392Z,99609.88
2023-01-13T09:30:38.693Z,99612.22
2023-01-13T09:33:24.463Z,99623.50
2023-01-13T09:35:52.755Z,99639.25
2023-01-13T09:38:20.934Z,99643.47
2023-01-13T09:40:50.976Z,99638.63
2023-01-13T09:43:38.746Z,99650.41
2023-01-13T09:46:30.273Z,99655.00
2023-01-13T09:48:59.260Z,99658.53
2023-01-13T09:51:35.940Z,99668.31
2023-01-13T09:54:13.310Z,99682.09
2023-01-13T09:56:50.840Z,99687.13
2023-01-13T09:59:25.016Z,99701.25
2023-01-13T10:02:03.099Z,99697.09
2023-01-13T10:04:37.987Z,99703.03
2023-01-13T10:07:20.666Z,99694.00
2023-01-13T10:09:58.339Z,99703.03
2023-01-13T10:12:48.167Z,99698.66
2023-01-13T10:15:23.246Z,99713.44
2023-01-13T10:18:00.036Z,99713.75
2023-01-13T10:20:34.215Z,99726.59
2023-01-13T10:23:08.718Z,99739.03
2023-01-13T10:25:56.658Z,99751.69
2023-01-13T10:28:26.660Z,99760.44
2023-01-13T10:30:54.893Z,99758.97
2023-01-13T10:33:27.729Z,99765.75
2023-01-13T10:36:00.707Z,99783.66
2023-01-13T10:38:30.643Z,99784.09
2023-01-13T10:40:59.958Z,99784.69
2023-01-13T10:43:30.497Z,99796.97
2023-01-13T10:46:01.095Z,99797.38
2023-01-13T10:48:40.320Z,99799.47
2023-01-13T10:51:12.931Z,99807.88
2023-01-13T10:53:51.491Z,99797.28
2023-01-13T10:56:27.132Z,99794.28
2023-01-13T10:59:24.183Z,99799.50
2023-01-13T11:01:59.661Z,99811.31
2023-01-13T11:04:36.655Z,99808.94
2023-01-13T11:07:05.803Z,99796.75
2023-01-13T11:09:39.225Z,99799.22
2023-01-13T11:12:34.015Z,99800.16
2023-01-13T11:15:09.440Z,99782.59
2023-01-13T11:17:48.052Z,99783.56
2023-01-13T11:20:24.587Z,99773.66
2023-01-13T11:22:59.811Z,99767.88
2023-01-13T11:25:41.510Z,99762.59
2023-01-13T11:28:20.763Z,99776.81
2023-01-13T11:30:54.823Z,99767.38
2023-01-13T11:33:36.410Z,99768.19
2023-01-13T11:36:13.409Z,99766.75
2023-01-13T11:38:54.556Z,99759.09
2023-01-13T11:41:47.753Z,99775.19
2023-01-13T11:44:21.762Z,99781.88
2023-01-13T11:46:56.485Z,99771.88
2023-01-13T11:49:32.536Z,99779.75
2023-01-13T11:52:12.365Z,99780.44
2023-01-13T11:54:50.895Z,99772.63
2023-01-13T11:57:40.605Z,99765.50
2023-01-13T12:00:19.042Z,99770.13
2023-01-13T12:02:58.166Z,99768.19
2023-01-13T12:05:35.528Z,99764.31
2023-01-13T12:08:16.945Z,99779.28
2023-01-13T12:10:57.690Z,99776.06
2023-01-13T12:13:33.516Z,99767.41
2023-01-13T12:16:24.484Z,99754.28
2023-01-13T12:19:01.640Z,99760.59
2023-01-13T12:21:34.647Z,99760.13
2023-01-13T12:24:09.620Z,99755.56
2023-01-13T12:26:40.335Z,99768.19
2023-01-13T12:29:12.999Z,99763.91
2023-01-13T12:31:43.335Z,99776.75
2023-01-13T12:34:21.517Z,99769.78
2023-01-13T12:36:57.190Z,99777.44
2023-01-13T12:39:28.489Z,99763.22
2023-01-13T12:42:18.085Z,99754.28
2023-01-13T12:45:05.232Z,99763.03
2023-01-13T12:47:41.157Z,99754.81
2023-01-13T12:50:33.422Z,99772.16
2023-01-13T12:53:33.064Z,99770.56
2023-01-13T12:56:31.216Z,99765.25
2023-01-13T12:59:25.436Z,99772.41
2023-01-13T13:02:30.900Z,99766.25
2023-01-13T13:05:08.791Z,99760.41
2023-01-13T13:07:46.095Z,99763.63
2023-01-13T13:10:26.016Z,99772.50
2023-01-13T13:13:18.332Z,99776.53
2023-01-13T13:15:53.479Z,99783.31
2023-01-13T13:18:27.731Z,99777.22
2023-01-13T13:21:04.730Z,99778.34
2023-01-13T13:23:45.082Z,99768.59
2023-01-13T13:26:37.936Z,99782.19
2023-01-13T13:29:23.646Z,99777.59
2023-01-13T13:32:15.614Z,99774.97
2023-01-13T13:34:48.572Z,99771.31
2023-01-13T13:37:28.944Z,99784.72
2023-01-13T13:40:14.975Z,99786.25
2023-01-13T13:43:02.691Z,99795.69
2023-01-13T13:45:48.520Z,99799.44
2023-01-13T13:48:21.044Z,99796.78
2023-01-13T13:50:50.202Z,99794.41
2023-01-13T13:53:20.573Z,99802.69
2023-01-13T13:55:59.659Z,99803.84
2023-01-13T13:58:30.589Z,99815.63
2023-01-13T14:01:00.223Z,99808.25
2023-01-13T14:03:30.908Z,99807.25
2023-01-13T14:06:02.238Z,99807.41
2023-01-13T14:08:31.715Z,99799.81
2023-01-13T14:11:00.198Z,99795.13
2023-01-13T14:13:31.946Z,99788.75
2023-01-13T14:16:01.140Z,99790.75
2023-01-13T14:18:31.895Z,99790.78
2023-01-13T14:21:01.685Z,99789.44
2023-01-13T14:23:31.055Z,99786.88
2023-01-13T14:26:03.422Z,99788.41
2023-01-13T14:28:37.493Z,99791.44
2023-01-13T14:31:06.783Z,99792.97
2023-01-13T14:33:38.888Z,99782.38
2023-01-13T14:36:16.175Z,99773.28
2023-01-13T14:38:46.297Z,99771.25
2023-01-13T14:41:19.718Z,99779.31
2023-01-13T14:43:50.438Z,99773.59
2023-01-13T14:46:21.090Z,99783.00
2023-01-13T14:48:54.123Z,99766.72
2023-01-13T14:51:25.551Z,99768.56
2023-01-13T14:53:54.400Z,99770.25
2023-01-13T14:56:43.676Z,99768.91
2023-01-13T14:59:32.546Z,99756.47
2023-01-13T15:02:02.708Z,99754.09
2023-01-13T15:04:38.352Z,99751.09
2023-01-13T15:07:08.301Z,99765.22
2023-01-13T15:09:40.779Z,99754.09
2023-01-13T15:12:25.772Z,99752.75
2023-01-13T15:14:56.961Z,99743.03
2023-01-13T15:17:27.915Z,99736.78
2023-01-13T15:19:56.883Z,99733.59
2023-01-13T15:22:25.205Z,99722.31
2023-01-13T15:24:53.300Z,99718.97
2023-01-13T15:27:29.569Z,99726.72
2023-01-13T15:29:59.691Z,99730.59
2023-01-13T15:32:29.411Z,99722.19
2023-01-13T15:34:58.693Z,99721.31
2023-01-13T15:37:26.765Z,99721.84
2023-01-13T15:39:54.835Z,99730.91
2023-01-13T15:42:37.014Z,99730.91
2023-01-13T15:45:23.621Z,99725.88
2023-01-13T15:47:53.531Z,99727.91
2023-01-13T15:50:23.099Z,99723.88
2023-01-13T15:52:51.735Z,99719.16
2023-01-13T15:55:20.036Z,99709.41
2023-01-13T15:57:51.025Z,99708.06
2023-01-13T16:00:23.408Z,99689.22
2023-01-13T16:02:52.739Z,99687.88
2023-01-13T16:05:22.412Z,99686.22
2023-01-13T16:07:50.544Z,99682.50
2023-01-13T16:10:24.143Z,99675.63
2023-01-13T16:12:53.881Z,99662.66
2023-01-13T16:15:25.051Z,99672.25
2023-01-13T16:17:56.234Z,99669.56
2023-01-13T16:20:25.824Z,99678.97
2023-01-13T16:22:54.040Z,99667.03
2023-01-13T16:25:24.213Z,99654.25
2023-01-13T16:27:53.242Z,99638.81
2023-01-13T16:30:26.082Z,99646.69
2023-01-13T16:32:55.541Z,99639.28
2023-01-13T16:35:25.718Z,99643.81
2023-01-13T16:37:55.110Z,99636.75
2023-01-13T16:40:25.103Z,99632.88
2023-01-13T16:42:54.118Z,99622.97
2023-01-13T16:45:22.244Z,99619.97
2023-01-13T16:47:50.559Z,99607.19
2023-01-13T16:50:24.492Z,99614.94
2023-01-13T16:52:54.734Z,99599.13
2023-01-13T16:55:23.259Z,99600.81
2023-01-13T16:57:51.527Z,99602.84
2023-01-13T17:00:20.219Z,99592.41
2023-01-13T17:02:48.458Z,99582.69
2023-01-13T17:05:16.910Z,99578.13
2023-01-13T17:07:46.303Z,99580.97
2023-01-13T17:10:17.256Z,99583.00
2023-01-13T17:12:45.908Z,99579.31
2023-01-13T17:15:14.831Z,99560.34
2023-01-13T17:17:44.439Z,99580.13
2023-01-13T17:20:13.573Z,99576.91
2023-01-13T17:22:42.469Z,99582.66
2023-01-13T17:25:12.707Z,99561.84
2023-01-13T17:27:42.843Z,99572.41
2023-01-13T17:30:12.272Z,99564.34
2023-01-13T17:32:40.718Z,99554.94
2023-01-13T17:35:09.944Z,99556.81
2023-01-13T17:37:38.266Z,99548.41
2023-01-13T17:40:06.934Z,99547.41
2023-01-13T17:42:35.696Z,99541.88
2023-01-13T17:45:06.312Z,99530.97
2023-01-13T17:47:35.122Z,99525.75
2023-01-13T17:50:04.195Z,99522.91
2023-01-13T17:52:32.866Z,99508.44
2023-01-13T17:55:01.055Z,99502.09
2023-01-13T17:57:29.279Z,99493.53
2023-01-13T17:59:58.568Z,99491.69
2023-01-13T18:02:30.209Z,99479.97
2023-01-13T18:04:58.445Z,99464.69
2023-01-13T18:07:26.628Z,99463.00
2023-01-13T18:09:55.017Z,99453.59
2023-01-13T18:12:23.149Z,99449.44
2023-01-13T18:14:51.439Z,99441.03
2023-01-13T18:17:19.713Z,99446.88
2023-01-13T18:20:06.921Z,99436.66
2023-01-13T18:22:52.902Z,99431.94
2023-01-13T18:25:50.056Z,99438.66
2023-01-13T18:28:18.212Z,99436.50
2023-01-13T18:30:46.759Z,99435.34
2023-01-13T18:33:15.205Z,99429.09
2023-01-13T18:35:44.989Z,99425.94
2023-01-13T18:38:14.424Z,99421.72
2023-01-13T18:40:44.478Z,99425.94
2023-01-13T18:43:11.681Z,99424.06
2023-01-13T18:45:39.822Z,99404.09
2023-01-13T18:48:08.097Z,99395.03
2023-01-13T18:50:36.393Z,99400.06
2023-01-13T18:53:05.949Z,99397.03
2023-01-13T18:55:34.119Z,99401.72
2023-01-13T18:58:02.391Z,99404.75
2023-01-13T19:00:36.434Z,99392.66
2023-01-13T19:05:34.435Z,99366.81
2023-01-13T19:08:02.648Z,99375.22
2023-01-13T19:10:32.948Z,99371.53
2023-01-13T19:13:01.989Z,99380.59
2023-01-13T19:15:30.299Z,99369.50
2023-01-13T19:17:58.913Z,99364.47
2023-01-13T19:20:27.008Z,99359.09
2023-01-13T19:22:55.123Z,99353.72
2023-01-13T19:25:23.323Z,99342.47
2023-01-13T19:27:53.159Z,99351.56
2023-01-13T19:30:21.463Z,99335.09
2023-01-13T19:32:50.089Z,99329.19
2023-01-13T19:35:18.433Z,99327.16
2023-01-13T19:37:46.856Z,99323.13
2023-01-13T19:40:15.499Z,99324.47
2023-01-13T19:43:01.965Z,99309.19
2023-01-13T19:45:33.968Z,99301.97
2023-01-13T19:48:05.282Z,99302.78
2023-01-13T19:50:36.697Z,99290.88
2023-01-13T19:53:05.132Z,99292.22
2023-01-13T19:55:33.803Z,99288.53
2023-01-13T19:58:02.953Z,99284.84
2023-01-13T20:00:32.705Z,99281.13
2023-01-13T20:03:03.853Z,99279.66
2023-01-13T20:05:32.135Z,99276.09
2023-01-13T20:08:00.341Z,99275.94
2023-01-13T20:10:30.585Z,99272.78
2023-01-13T20:12:59.438Z,99258.34
2023-01-13T20:15:27.713Z,99251.94
2023-01-13T20:17:58.165Z,99241.69
2023-01-13T20:20:27.731Z,99243.19
2023-01-13T20:22:58.182Z,99242.66
2023-01-13T20:25:28.769Z,99244.16
2023-01-13T20:27:57.688Z,99250.69
2023-01-13T20:30:26.072Z,99248.00
2023-01-13T20:32:55.404Z,99224.47
2023-01-13T20:35:30.105Z,99226.97
2023-01-13T20:37:59.458Z,99204.09
2023-01-13T20:40:28.553Z,99204.09
2023-01-13T20:42:56.911Z,99187.97
2023-01-13T20:45:26.219Z,99179.56
2023-01-13T20:47:55.540Z,99176.69
2023-01-13T20:50:25.820Z,99180.50
2023-01-13T20:52:54.373Z,99179.31
2023-01-13T20:55:22.701Z,99174.13
2023-01-13T20:57:50.936Z,99169.06
2023-01-13T21:00:20.028Z,99160.63
2023-01-13T21:02:48.744Z,99151.53
2023-01-13T21:05:18.049Z,99148.13
2023-01-13T21:07:47.921Z,99143.41
2023-01-13T21:10:17.847Z,99133.66
2023-01-13T21:13:03.665Z,99120.88
2023-01-13T21:15:32.168Z,99119.69
2023-01-13T21:18:17.935Z,99112.25
2023-01-13T21:20:46.967Z,99110.25
2023-01-13T21:23:17.386Z,99098.25
2023-01-13T21:25:45.907Z,99088.81
2023-01-13T21:28:16.593Z,99090.13
2023-01-13T21:30:45.703Z,99085.22
2023-01-13T21:33:14.877Z,99081.16
2023-01-13T21:35:43.842Z,99070.66
2023-01-13T21:38:13.715Z,99061.56
2023-01-13T21:40:43.753Z,99055.63
2023-01-13T21:43:31.074Z,99050.06
2023-01-13T21:46:17.188Z,99050.72
2023-01-13T21:48:46.632Z,99037.72
2023-01-13T21:51:15.594Z,99026.38
2023-01-13T21:53:43.804Z,99032.63
2023-01-13T21:56:14.077Z,99025.38
2023-01-13T21:58:42.619Z,99013.03
2023-01-13T22:01:11.920Z,99003.94
2023-01-13T22:03:54.617Z,98992.16
2023-01-13T22:06:23.958Z,98988.88
2023-01-13T22:08:54.589Z,98981.44
2023-01-13T22:11:24.808Z,98972.34
2023-01-13T22:14:09.722Z,98960.38
2023-01-13T22:16:40.250Z,98959.19
2023-01-13T22:19:09.715Z,98957.94
2023-01-13T22:21:38.371Z,98941.16
2023-01-13T22:24:06.834Z,98937.44
2023-01-13T22:26:36.993Z,98928.13
2023-01-13T22:29:06.278Z,98917.00
2023-01-13T22:31:35.548Z,98906.88
2023-01-13T22:34:04.066Z,98902.31
2023-01-13T22:36:32.266Z,98894.69
2023-01-13T22:39:01.456Z,98886.88
2023-01-13T22:41:29.760Z,98882.31
2023-01-13T22:44:02.814Z,98861.00
2023-01-13T22:46:31.305Z,98849.63
2023-01-13T22:49:00.136Z,98842.81
2023-01-13T22:51:30.675Z,98836.41
2023-01-13T22:53:59.056Z,98818.19
2023-01-13T22:56:27.774Z,98813.63
2023-01-13T22:58:57.264Z,98793.75
2023-01-13T23:01:27.824Z,98791.53
2023-01-13T23:03:57.797Z,98779.69
2023-01-13T23:06:27.061Z,98776.38
2023-01-13T23:08:55.644Z,98774.72
2023-01-13T23:11:25.523Z,98769.56
2023-01-13T23:13:57.798Z,98756.09
2023-01-13T23:16:29.457Z,98756.09
2023-01-13T23:18:58.891Z,98737.88
2023-01-13T23:21:29.175Z,98731.22
2023-01-13T23:23:58.868Z,98733.34
2023-01-13T23:26:27.618Z,98721.09
2023-01-13T23:28:59.494Z,98708.66
2023-01-13T23:31:30.734Z,98701.22
2023-01-13T23:33:59.546Z,98698.69
2023-01-13T23:36:29.596Z,98695.63
2023-01-13T23:39:00.106Z,98704.34
2023-01-13T23:41:29.536Z,98683.44
2023-01-13T23:43:59.729Z,98684.88
2023-01-13T23:46:31.087Z,98680.75
2023-01-13T23:49:00.403Z,98677.19
2023-01-13T23:51:30.468Z,98677.19
2023-01-13T23:53:59.840Z,98666.44
2023-01-13T23:56:29.375Z,98671.19
2023-01-13T23:58:58.346Z,98657.53
